sensor_id;sensor_type;location;lat;lon;timestamp;pressure;altitude;pressure_sealevel;temperature;humidity
53758;BME280;39674;59.860;30.672;2022-12-20T00:03:15;101519.13;;;-0.85;100.00
53758;BME280;39674;59.860;30.672;2022-12-20T00:06:02;101520.88;;;-0.87;100.00
53758;BME280;39674;59.860;30.672;2022-12-20T00:12:07;101522.56;;;-0.89;100.00
53758;BME280;39674;59.860;30.672;2022-12-20T00:14:57;101522.56;;;-0.89;100.00
53758;BME280;39674;59.860;30.672;2022-12-20T00:17:28;101521.66;;;-0.94;100.00
53758;BME280;39674;59.860;30.672;2022-12-20T00:20:07;101516.47;;;-0.94;100.00
53758;BME280;39674;59.860;30.672;2022-12-20T00:23:32;101519.84;;;-1.03;100.00
53758;BME280;39674;59.860;30.672;2022-12-20T00:26:12;101513.78;;;-1.03;100.00
53758;BME280;39674;59.860;30.672;2022-12-20T00:28:53;101520.66;;;-1.11;100.00
53758;BME280;39674;59.860;30.672;2022-12-20T00:31:33;101510.22;;;-1.15;100.00
53758;BME280;39674;59.860;30.672;2022-12-20T00:34:13;101511.91;;;-1.20;100.00
53758;BME280;39674;59.860;30.672;2022-12-20T00:36:58;101511.88;;;-1.23;100.00
53758;BME280;39674;59.860;30.672;2022-12-20T00:39:33;101512.72;;;-1.24;100.00
53758;BME280;39674;59.860;30.672;2022-12-20T00:42:11;101508.41;;;-1.25;100.00
53758;BME280;39674;59.860;30.672;2022-12-20T00:45:06;101498.84;;;-1.29;100.00
53758;BME280;39674;59.860;30.672;2022-12-20T00:47:41;101497.88;;;-1.40;100.00
53758;BME280;39674;59.860;30.672;2022-12-20T00:50:25;101484.84;;;-1.47;100.00
53758;BME280;39674;59.860;30.672;2022-12-20T00:53:16;101493.41;;;-1.52;100.00
53758;BME280;39674;59.860;30.672;2022-12-20T00:56:20;101496.06;;;-1.48;100.00
53758;BME280;39674;59.860;30.672;2022-12-20T00:59:37;101489.06;;;-1.55;100.00
53758;BME280;39674;59.860;30.672;2022-12-20T01:02:14;101484.78;;;-1.53;100.00
53758;BME280;39674;59.860;30.672;2022-12-20T01:05:03;101470.06;;;-1.57;100.00
53758;BME280;39674;59.860;30.672;2022-12-20T01:07:34;101471.78;;;-1.59;100.00
53758;BME280;39674;59.860;30.672;2022-12-20T01:10:12;101472.63;;;-1.60;100.00
53758;BME280;39674;59.860;30.672;2022-12-20T01:12:46;101475.13;;;-1.66;100.00
53758;BME280;39674;59.860;30.672;2022-12-20T01:15:23;101472.47;;;-1.72;100.00
53758;BME280;39674;59.860;30.672;2022-12-20T01:18:03;101469.84;;;-1.75;100.00
53758;BME280;39674;59.860;30.672;2022-12-20T01:20:37;101469.88;;;-1.74;100.00
53758;BME280;39674;59.860;30.672;2022-12-20T01:23:27;101462.03;;;-1.80;100.00
53758;BME280;39674;59.860;30.672;2022-12-20T01:26:22;101464.56;;;-1.85;100.00
53758;BME280;39674;59.860;30.672;2022-12-20T01:28:53;101462.88;;;-1.83;100.00
53758;BME280;39674;59.860;30.672;2022-12-20T01:31:36;101452.47;;;-1.86;100.00
53758;BME280;39674;59.860;30.672;2022-12-20T01:34:19;101432.53;;;-1.91;100.00
53758;BME280;39674;59.860;30.672;2022-12-20T01:36:51;101429.94;;;-1.93;100.00
53758;BME280;39674;59.860;30.672;2022-12-20T01:39:25;101427.34;;;-1.93;100.00
53758;BME280;39674;59.860;30.672;2022-12-20T01:41:56;101422.94;;;-2.03;100.00
53758;BME280;39674;59.860;30.672;2022-12-20T01:44:50;101434.19;;;-2.00;100.00
53758;BME280;39674;59.860;30.672;2022-12-20T01:47:22;101429.84;;;-2.02;100.00
53758;BME280;39674;59.860;30.672;2022-12-20T01:49:57;101434.13;;;-2.04;100.00
53758;BME280;39674;59.860;30.672;2022-12-20T01:52:36;101436.72;;;-2.04;100.00
53758;BME280;39674;59.860;30.672;2022-12-20T01:55:16;101425.47;;;-2.08;100.00
53758;BME280;39674;59.860;30.672;2022-12-20T01:57:48;101427.97;;;-2.13;100.00
53758;BME280;39674;59.860;30.672;2022-12-20T02:00:38;101421.91;;;-2.16;100.00
53758;BME280;39674;59.860;30.672;2022-12-20T02:03:23;101421.91;;;-2.16;100.00
53758;BME280;39674;59.860;30.672;2022-12-20T02:06:05;101421.00;;;-2.20;100.00
53758;BME280;39674;59.860;30.672;2022-12-20T02:08:40;101413.22;;;-2.20;100.00
53758;BME280;39674;59.860;30.672;2022-12-20T02:11:12;101412.34;;;-2.22;100.00
53758;BME280;39674;59.860;30.672;2022-12-20T02:14:04;101413.22;;;-2.21;100.00
53758;BME280;39674;59.860;30.672;2022-12-20T02:17:05;101402.84;;;-2.23;100.00
53758;BME280;39674;59.860;30.672;2022-12-20T02:20:07;101405.38;;;-2.26;100.00
53758;BME280;39674;59.860;30.672;2022-12-20T03:00:43;101370.03;;;-2.90;100.00
53758;BME280;39674;59.860;30.672;2022-12-20T03:03:35;101359.63;;;-2.96;100.00
53758;BME280;39674;59.860;30.672;2022-12-20T03:07:16;101357.03;;;-2.96;100.00
53758;BME280;39674;59.860;30.672;2022-12-20T03:16:38;101349.03;;;-3.12;100.00
53758;BME280;39674;59.860;30.672;2022-12-20T03:19:11;101351.41;;;-3.26;100.00
53758;BME280;39674;59.860;30.672;2022-12-20T03:21:40;101357.53;;;-3.19;100.00
53758;BME280;39674;59.860;30.672;2022-12-20T03:24:18;101355.66;;;-3.29;100.00
53758;BME280;39674;59.860;30.672;2022-12-20T03:26:47;101350.41;;;-3.35;100.00
53758;BME280;39674;59.860;30.672;2022-12-20T03:29:20;101353.78;;;-3.40;100.00
53758;BME280;39674;59.860;30.672;2022-12-20T03:31:50;101350.28;;;-3.43;100.00
53758;BME280;39674;59.860;30.672;2022-12-20T03:34:20;101358.59;;;-3.61;100.00
53758;BME280;39674;59.860;30.672;2022-12-20T03:36:49;101348.81;;;-3.79;100.00
53758;BME280;39674;59.860;30.672;2022-12-20T03:39:20;101356.41;;;-3.87;100.00
53758;BME280;39674;59.860;30.672;2022-12-20T03:41:51;101352.66;;;-4.05;100.00
53758;BME280;39674;59.860;30.672;2022-12-20T03:44:23;101341.44;;;-4.05;100.00
53758;BME280;39674;59.860;30.672;2022-12-20T03:46:59;101342.16;;;-4.12;100.00
53758;BME280;39674;59.860;30.672;2022-12-20T03:49:29;101332.44;;;-4.27;100.00
53758;BME280;39674;59.860;30.672;2022-12-20T03:51:59;101325.41;;;-4.35;100.00
53758;BME280;39674;59.860;30.672;2022-12-20T03:54:28;101331.25;;;-4.45;100.00
53758;BME280;39674;59.860;30.672;2022-12-20T03:57:27;101324.91;;;-4.61;100.00
53758;BME280;39674;59.860;30.672;2022-12-20T03:59:57;101316.13;;;-4.69;100.00
53758;BME280;39674;59.860;30.672;2022-12-20T04:02:27;101310.75;;;-4.80;100.00
53758;BME280;39674;59.860;30.672;2022-12-20T04:04:58;101307.13;;;-4.88;100.00
53758;BME280;39674;59.860;30.672;2022-12-20T04:07:33;101304.38;;;-4.97;100.00
53758;BME280;39674;59.860;30.672;2022-12-20T04:10:03;101299.88;;;-5.06;100.00
53758;BME280;39674;59.860;30.672;2022-12-20T04:12:35;101300.38;;;-5.21;100.00
53758;BME280;39674;59.860;30.672;2022-12-20T04:15:07;101300.13;;;-5.34;100.00
53758;BME280;39674;59.860;30.672;2022-12-20T04:17:41;101299.13;;;-5.39;100.00
53758;BME280;39674;59.860;30.672;2022-12-20T04:20:12;101291.38;;;-5.42;100.00
53758;BME280;39674;59.860;30.672;2022-12-20T04:23:08;101205.13;;;-5.96;100.00
53758;BME280;39674;59.860;30.672;2022-12-20T04:25:38;101281.81;;;-5.46;100.00
53758;BME280;39674;59.860;30.672;2022-12-20T04:28:07;101282.00;;;-5.38;100.00
53758;BME280;39674;59.860;30.672;2022-12-20T04:30:38;101291.38;;;-5.42;100.00
53758;BME280;39674;59.860;30.672;2022-12-20T04:33:08;101285.97;;;-5.51;100.00
53758;BME280;39674;59.860;30.672;2022-12-20T04:35:37;101286.66;;;-5.58;100.00
53758;BME280;39674;59.860;30.672;2022-12-20T04:38:09;101283.19;;;-5.60;100.00
53758;BME280;39674;59.860;30.672;2022-12-20T04:40:37;101284.91;;;-5.59;100.00
53758;BME280;39674;59.860;30.672;2022-12-20T04:43:09;101285.88;;;-5.56;100.00
53758;BME280;39674;59.860;30.672;2022-12-20T04:45:38;101289.91;;;-5.66;100.00
53758;BME280;39674;59.860;30.672;2022-12-20T04:48:06;101287.19;;;-5.72;100.00
53758;BME280;39674;59.860;30.672;2022-12-20T04:50:40;101291.28;;;-5.80;100.00
53758;BME280;39674;59.860;30.672;2022-12-20T04:53:09;101287.19;;;-5.72;100.00
53758;BME280;39674;59.860;30.672;2022-12-20T04:55:57;101289.59;;;-5.80;100.00
53758;BME280;39674;59.860;30.672;2022-12-20T04:58:26;101274.97;;;-5.82;100.00
53758;BME280;39674;59.860;30.672;2022-12-20T05:00:55;101274.06;;;-5.83;100.00
53758;BME280;39674;59.860;30.672;2022-12-20T05:03:27;101267.03;;;-5.90;100.00
53758;BME280;39674;59.860;30.672;2022-12-20T05:05:57;101267.00;;;-5.91;100.00
53758;BME280;39674;59.860;30.672;2022-12-20T05:08:26;101257.53;;;-5.92;100.00
53758;BME280;39674;59.860;30.672;2022-12-20T05:10:54;101259.09;;;-6.01;100.00
53758;BME280;39674;59.860;30.672;2022-12-20T05:13:23;101255.66;;;-6.00;100.00
53758;BME280;39674;59.860;30.672;2022-12-20T05:15:52;101260.81;;;-6.00;100.00
53758;BME280;39674;59.860;30.672;2022-12-20T05:18:26;101266.66;;;-6.07;100.00
53758;BME280;39674;59.860;30.672;2022-12-20T05:21:03;101268.22;;;-6.12;100.00
53758;BME280;39674;59.860;30.672;2022-12-20T05:23:49;101260.59;;;-6.09;100.00
53758;BME280;39674;59.860;30.672;2022-12-20T05:26:54;101259.63;;;-6.14;100.00
53758;BME280;39674;59.860;30.672;2022-12-20T05:29:22;101260.19;;;-6.24;100.00
53758;BME280;39674;59.860;30.672;2022-12-20T05:31:51;101256.78;;;-6.23;100.00
53758;BME280;39674;59.860;30.672;2022-12-20T05:34:20;101257.75;;;-6.20;100.00
53758;BME280;39674;59.860;30.672;2022-12-20T05:36:54;101251.75;;;-6.20;100.00
53758;BME280;39674;59.860;30.672;2022-12-20T05:39:25;101253.13;;;-6.32;100.00
53758;BME280;39674;59.860;30.672;2022-12-20T05:41:58;101249.84;;;-6.27;100.00
53758;BME280;39674;59.860;30.672;2022-12-20T05:44:28;101252.09;;;-6.40;100.00
53758;BME280;39674;59.860;30.672;2022-12-20T05:47:02;101246.94;;;-6.40;100.00
53758;BME280;39674;59.860;30.672;2022-12-20T05:49:35;101244.28;;;-6.43;100.00
53758;BME280;39674;59.860;30.672;2022-12-20T05:52:07;101247.69;;;-6.44;100.00
53758;BME280;39674;59.860;30.672;2022-12-20T05:54:38;101239.78;;;-6.52;98.87
53758;BME280;39674;59.860;30.672;2022-12-20T05:57:11;101241.97;;;-6.66;99.78
53758;BME280;39674;59.860;30.672;2022-12-20T05:59:44;101234.03;;;-6.73;100.00
53758;BME280;39674;59.860;30.672;2022-12-20T06:02:16;101235.88;;;-6.69;100.00
53758;BME280;39674;59.860;30.672;2022-12-20T06:04:51;101230.66;;;-6.71;100.00
53758;BME280;39674;59.860;30.672;2022-12-20T06:07:25;101237.31;;;-6.79;100.00
53758;BME280;39674;59.860;30.672;2022-12-20T06:09:58;101238.19;;;-6.79;99.47
53758;BME280;39674;59.860;30.672;2022-12-20T06:12:40;101232.84;;;-6.86;99.64
53758;BME280;39674;59.860;30.672;2022-12-20T06:15:09;101231.81;;;-6.91;100.00
53758;BME280;39674;59.860;30.672;2022-12-20T06:17:41;101235.44;;;-6.85;100.00
53758;BME280;39674;59.860;30.672;2022-12-20T06:20:09;101231.00;;;-6.90;100.00
53758;BME280;39674;59.860;30.672;2022-12-20T06:22:43;101233.47;;;-6.94;100.00
53758;BME280;39674;59.860;30.672;2022-12-20T06:25:21;101230.63;;;-7.03;99.32
53758;BME280;39674;59.860;30.672;2022-12-20T06:27:51;101224.53;;;-7.06;98.58
53758;BME280;39674;59.860;30.672;2022-12-20T06:30:24;101219.16;;;-7.16;98.27
53758;BME280;39674;59.860;30.672;2022-12-20T06:33:06;101217.25;;;-7.23;98.75
53758;BME280;39674;59.860;30.672;2022-12-20T06:35:37;101223.81;;;-7.31;99.31
53758;BME280;39674;59.860;30.672;2022-12-20T06:38:19;101224.44;;;-7.40;99.89
53758;BME280;39674;59.860;30.672;2022-12-20T06:40:50;101221.03;;;-7.39;99.88
53758;BME280;39674;59.860;30.672;2022-12-20T06:43:23;101222.50;;;-7.47;100.00
53758;BME280;39674;59.860;30.672;2022-12-20T06:45:56;101226.03;;;-7.44;100.00
53758;BME280;39674;59.860;30.672;2022-12-20T06:48:32;101235.28;;;-7.49;99.81
53758;BME280;39674;59.860;30.672;2022-12-20T06:51:06;101239.34;;;-7.55;100.00
53758;BME280;39674;59.860;30.672;2022-12-20T06:53:36;101234.22;;;-7.55;100.00
53758;BME280;39674;59.860;30.672;2022-12-20T06:56:08;101251.09;;;-7.64;100.00
53758;BME280;39674;59.860;30.672;2022-12-20T06:58:37;101249.34;;;-7.65;100.00
53758;BME280;39674;59.860;30.672;2022-12-20T07:01:08;101250.19;;;-7.64;100.00
53758;BME280;39674;59.860;30.672;2022-12-20T07:03:39;101245.84;;;-7.67;100.00
53758;BME280;39674;59.860;30.672;2022-12-20T07:06:11;101243.75;;;-7.79;100.00
53758;BME280;39674;59.860;30.672;2022-12-20T07:08:42;101238.56;;;-7.80;100.00
53758;BME280;39674;59.860;30.672;2022-12-20T07:12:06;101241.97;;;-7.81;100.00
53758;BME280;39674;59.860;30.672;2022-12-20T07:14:27;101229.94;;;-7.82;99.59
53758;BME280;39674;59.860;30.672;2022-12-20T07:17:07;101228.78;;;-7.92;99.36
53758;BME280;39674;59.860;30.672;2022-12-20T07:19:38;101226.03;;;-7.98;99.20
53758;BME280;39674;59.860;30.672;2022-12-20T07:22:10;101225.00;;;-8.03;99.39
53758;BME280;39674;59.860;30.672;2022-12-20T07:24:41;101227.63;;;-8.02;98.38
53758;BME280;39674;59.860;30.672;2022-12-20T07:27:12;101223.13;;;-8.09;98.47
53758;BME280;39674;59.860;30.672;2022-12-20T07:29:43;101228.16;;;-8.12;98.46
53758;BME280;39674;59.860;30.672;2022-12-20T07:32:18;101228.03;;;-8.15;97.56
53758;BME280;39674;59.860;30.672;2022-12-20T07:34:49;101222.78;;;-8.20;97.59
53758;BME280;39674;59.860;30.672;2022-12-20T07:37:23;101223.53;;;-8.23;98.00
53758;BME280;39674;59.860;30.672;2022-12-20T07:40:13;101226.94;;;-8.24;98.79
53758;BME280;39674;59.860;30.672;2022-12-20T07:42:56;101224.41;;;-8.22;98.26
53758;BME280;39674;59.860;30.672;2022-12-20T07:45:41;101215.13;;;-8.18;98.19
53758;BME280;39674;59.860;30.672;2022-12-20T07:48:11;101220.06;;;-8.25;98.10
53758;BME280;39674;59.860;30.672;2022-12-20T07:50:52;101210.63;;;-8.26;97.68
53758;BME280;39674;59.860;30.672;2022-12-20T07:53:28;101225.19;;;-8.25;96.95
53758;BME280;39674;59.860;30.672;2022-12-20T07:56:00;101225.78;;;-8.32;97.74
53758;BME280;39674;59.860;30.672;2022-12-20T07:58:37;101217.50;;;-8.25;97.64
53758;BME280;39674;59.860;30.672;2022-12-20T08:01:08;101207.19;;;-8.26;95.79
53758;BME280;39674;59.860;30.672;2022-12-20T08:03:42;101206.88;;;-8.35;96.01
53758;BME280;39674;59.860;30.672;2022-12-20T08:06:16;101202.72;;;-8.32;96.75
53758;BME280;39674;59.860;30.672;2022-12-20T08:08:58;101203.44;;;-8.36;96.89
53758;BME280;39674;59.860;30.672;2022-12-20T08:11:35;101202.59;;;-8.35;97.73
53758;BME280;39674;59.860;30.672;2022-12-20T08:14:03;101198.81;;;-8.20;97.22
53758;BME280;39674;59.860;30.672;2022-12-20T08:16:39;101194.41;;;-8.25;95.42
53758;BME280;39674;59.860;30.672;2022-12-20T08:19:11;101195.16;;;-8.29;95.58
53758;BME280;39674;59.860;30.672;2022-12-20T08:21:53;101193.25;;;-8.34;95.46
53758;BME280;39674;59.860;30.672;2022-12-20T08:24:24;101200.88;;;-8.36;95.75
53758;BME280;39674;59.860;30.672;2022-12-20T08:27:07;101199.03;;;-8.40;95.56
53758;BME280;39674;59.860;30.672;2022-12-20T08:29:45;101195.56;;;-8.42;96.45
53758;BME280;39674;59.860;30.672;2022-12-20T08:32:23;101202.41;;;-8.41;96.54
53758;BME280;39674;59.860;30.672;2022-12-20T08:35:00;101205.81;;;-8.42;95.64
53758;BME280;39674;59.860;30.672;2022-12-20T08:37:34;101205.72;;;-8.44;94.78
53758;BME280;39674;59.860;30.672;2022-12-20T08:40:11;101202.31;;;-8.44;95.51
53758;BME280;39674;59.860;30.672;2022-12-20T08:42:51;101198.94;;;-8.43;95.21
53758;BME280;39674;59.860;30.672;2022-12-20T08:45:24;101184.22;;;-8.50;95.57
53758;BME280;39674;59.860;30.672;2022-12-20T08:47:56;101193.91;;;-8.40;96.18
53758;BME280;39674;59.860;30.672;2022-12-20T08:50:24;101181.91;;;-8.41;94.26
53758;BME280;39674;59.860;30.672;2022-12-20T08:52:54;101181.63;;;-8.50;94.99
53758;BME280;39674;59.860;30.672;2022-12-20T08:55:23;101184.22;;;-8.50;94.93
53758;BME280;39674;59.860;30.672;2022-12-20T08:58:17;101174.78;;;-8.51;94.82
53758;BME280;39674;59.860;30.672;2022-12-20T09:00:47;101178.84;;;-8.58;95.44
53758;BME280;39674;59.860;30.672;2022-12-20T09:03:14;101170.59;;;-8.49;95.38
53758;BME280;39674;59.860;30.672;2022-12-20T09:05:46;101185.13;;;-8.48;95.20
53758;BME280;39674;59.860;30.672;2022-12-20T09:08:15;101179.78;;;-8.55;95.61
53758;BME280;39674;59.860;30.672;2022-12-20T09:10:43;101185.88;;;-8.51;95.90
53758;BME280;39674;59.860;30.672;2022-12-20T09:13:13;101179.91;;;-8.51;95.60
53758;BME280;39674;59.860;30.672;2022-12-20T09:15:44;101183.47;;;-8.46;95.93
53758;BME280;39674;59.860;30.672;2022-12-20T09:18:15;101174.13;;;-8.44;96.45
53758;BME280;39674;59.860;30.672;2022-12-20T09:20:43;101180.19;;;-8.42;96.03
53758;BME280;39674;59.860;30.672;2022-12-20T09:23:16;101170.84;;;-8.40;96.03
53758;BME280;39674;59.860;30.672;2022-12-20T09:25:44;101166.72;;;-8.35;94.19
53758;BME280;39674;59.860;30.672;2022-12-20T09:28:14;101166.53;;;-8.41;95.11
53758;BME280;39674;59.860;30.672;2022-12-20T09:30:42;101158.81;;;-8.43;94.47
53758;BME280;39674;59.860;30.672;2022-12-20T09:33:10;101156.84;;;-8.51;94.62
53758;BME280;39674;59.860;30.672;2022-12-20T09:35:43;101154.44;;;-8.45;94.45
53758;BME280;39674;59.860;30.672;2022-12-20T09:38:12;101154.44;;;-8.45;95.24
53758;BME280;39674;59.860;30.672;2022-12-20T09:40:43;101144.31;;;-8.42;94.77
53758;BME280;39674;59.860;30.672;2022-12-20T09:43:14;101144.19;;;-8.45;95.52
53758;BME280;39674;59.860;30.672;2022-12-20T09:45:44;101137.53;;;-8.40;94.40
53758;BME280;39674;59.860;30.672;2022-12-20T09:48:15;101139.06;;;-8.45;94.96
53758;BME280;39674;59.860;30.672;2022-12-20T09:50:48;101134.00;;;-8.44;95.05
53758;BME280;39674;59.860;30.672;2022-12-20T09:53:22;101132.97;;;-8.50;95.46
53758;BME280;39674;59.860;30.672;2022-12-20T09:55:55;101127.19;;;-8.43;96.38
53758;BME280;39674;59.860;30.672;2022-12-20T10:01:16;101121.03;;;-8.23;96.26
53758;BME280;39674;59.860;30.672;2022-12-20T10:03:47;101120.09;;;-8.25;96.45
53758;BME280;39674;59.860;30.672;2022-12-20T10:06:18;101115.91;;;-8.23;96.18
53758;BME280;39674;59.860;30.672;2022-12-20T10:08:54;101102.03;;;-8.28;95.93
53758;BME280;39674;59.860;30.672;2022-12-20T10:14:07;101101.97;;;-8.31;95.77
53758;BME280;39674;59.860;30.672;2022-12-20T10:16:43;101101.28;;;-8.25;95.69
53758;BME280;39674;59.860;30.672;2022-12-20T10:19:17;101105.66;;;-8.23;94.51
53758;BME280;39674;59.860;30.672;2022-12-20T10:21:50;101109.81;;;-8.26;94.16
53758;BME280;39674;59.860;30.672;2022-12-20T10:24:20;101109.03;;;-8.24;94.51
53758;BME280;39674;59.860;30.672;2022-12-20T10:26:52;101112.22;;;-8.31;94.81
53758;BME280;39674;59.860;30.672;2022-12-20T10:29:21;101110.66;;;-8.26;95.50
53758;BME280;39674;59.860;30.672;2022-12-20T10:31:52;101112.50;;;-8.22;94.10
53758;BME280;39674;59.860;30.672;2022-12-20T10:34:22;101111.47;;;-8.27;93.78
53758;BME280;39674;59.860;30.672;2022-12-20T10:36:51;101127.69;;;-8.28;93.65
53758;BME280;39674;59.860;30.672;2022-12-20T10:39:39;101117.34;;;-8.31;93.71
53758;BME280;39674;59.860;30.672;2022-12-20T10:42:20;101115.59;;;-8.32;94.08
53758;BME280;39674;59.860;30.672;2022-12-20T10:45:01;101111.47;;;-8.27;94.41
53758;BME280;39674;59.860;30.672;2022-12-20T10:47:37;101111.53;;;-8.25;94.44
53758;BME280;39674;59.860;30.672;2022-12-20T10:50:13;101121.09;;;-8.19;94.57
53758;BME280;39674;59.860;30.672;2022-12-20T10:52:42;101123.59;;;-8.23;94.27
53758;BME280;39674;59.860;30.672;2022-12-20T10:58:11;101118.59;;;-8.18;93.82
53758;BME280;39674;59.860;30.672;2022-12-20T11:00:40;101117.53;;;-8.25;93.18
53758;BME280;39674;59.860;30.672;2022-12-20T11:03:14;101111.44;;;-8.28;93.02
53758;BME280;39674;59.860;30.672;2022-12-20T11:05:54;101103.72;;;-8.30;92.33
53758;BME280;39674;59.860;30.672;2022-12-20T11:08:23;101087.94;;;-8.42;92.79
53758;BME280;39674;59.860;30.672;2022-12-20T11:13:37;101089.78;;;-8.38;93.34
53758;BME280;39674;59.860;30.672;2022-12-20T11:16:21;101093.28;;;-8.36;93.22
53758;BME280;39674;59.860;30.672;2022-12-20T11:18:53;101090.63;;;-8.38;93.91
53758;BME280;39674;59.860;30.672;2022-12-20T11:21:26;101085.50;;;-8.38;94.41
53758;BME280;39674;59.860;30.672;2022-12-20T11:24:01;101086.41;;;-8.37;94.58
53758;BME280;39674;59.860;30.672;2022-12-20T11:26:38;101088.16;;;-8.36;95.08
53758;BME280;39674;59.860;30.672;2022-12-20T11:29:15;101087.19;;;-8.40;94.78
53758;BME280;39674;59.860;30.672;2022-12-20T11:31:50;101090.72;;;-8.36;95.04
53758;BME280;39674;59.860;30.672;2022-12-20T11:34:24;101088.22;;;-8.33;94.77
53758;BME280;39674;59.860;30.672;2022-12-20T11:37:05;101081.53;;;-8.28;95.44
53758;BME280;39674;59.860;30.672;2022-12-20T11:39:38;101090.91;;;-8.30;95.35
53758;BME280;39674;59.860;30.672;2022-12-20T11:42:13;101086.41;;;-8.37;94.12
53758;BME280;39674;59.860;30.672;2022-12-20T11:44:48;101089.16;;;-8.31;95.13
53758;BME280;39674;59.860;30.672;2022-12-20T11:50:17;101084.69;;;-8.36;93.33
53758;BME280;39674;59.860;30.672;2022-12-20T11:52:49;101083.88;;;-8.35;93.87
53758;BME280;39674;59.860;30.672;2022-12-20T11:55:19;101092.19;;;-8.43;94.41
53758;BME280;39674;59.860;30.672;2022-12-20T11:57:55;101082.81;;;-8.42;94.54
53758;BME280;39674;59.860;30.672;2022-12-20T12:00:26;101086.41;;;-8.37;94.64
53758;BME280;39674;59.860;30.672;2022-12-20T12:02:56;101088.03;;;-8.39;94.68
53758;BME280;39674;59.860;30.672;2022-12-20T12:05:31;101092.41;;;-8.35;95.17
53758;BME280;39674;59.860;30.672;2022-12-20T12:08:14;101091.53;;;-8.37;95.32
53758;BME280;39674;59.860;30.672;2022-12-20T12:10:44;101086.47;;;-8.34;94.80
53758;BME280;39674;59.860;30.672;2022-12-20T12:13:20;101082.16;;;-8.35;94.81
53758;BME280;39674;59.860;30.672;2022-12-20T12:15:52;101083.72;;;-8.40;95.14
53758;BME280;39674;59.860;30.672;2022-12-20T12:18:22;101082.09;;;-8.38;95.48
53758;BME280;39674;59.860;30.672;2022-12-20T12:20:55;101078.78;;;-8.34;95.53
53758;BME280;39674;59.860;30.672;2022-12-20T12:23:26;101081.63;;;-8.26;95.58
53758;BME280;39674;59.860;30.672;2022-12-20T12:26:00;101069.34;;;-8.35;95.75
53758;BME280;39674;59.860;30.672;2022-12-20T12:28:29;101062.53;;;-8.36;95.10
53758;BME280;39674;59.860;30.672;2022-12-20T12:30:58;101065.94;;;-8.35;95.32
53758;BME280;39674;59.860;30.672;2022-12-20T12:33:31;101069.28;;;-8.38;95.56
53758;BME280;39674;59.860;30.672;2022-12-20T12:36:09;101066.75;;;-8.36;95.98
53758;BME280;39674;59.860;30.672;2022-12-20T12:41:38;101069.59;;;-8.29;95.38
53758;BME280;39674;59.860;30.672;2022-12-20T12:44:22;101082.13;;;-8.36;96.11
53758;BME280;39674;59.860;30.672;2022-12-20T12:46:57;101076.03;;;-8.40;96.33
53758;BME280;39674;59.860;30.672;2022-12-20T12:49:27;101075.25;;;-8.38;96.54
53758;BME280;39674;59.860;30.672;2022-12-20T12:52:02;101069.28;;;-8.38;95.53
53758;BME280;39674;59.860;30.672;2022-12-20T12:54:34;101071.03;;;-8.37;95.58
53758;BME280;39674;59.860;30.672;2022-12-20T12:57:06;101069.16;;;-8.41;94.22
53758;BME280;39674;59.860;30.672;2022-12-20T12:59:47;101059.66;;;-8.47;94.46
53758;BME280;39674;59.860;30.672;2022-12-20T13:02:33;101057.03;;;-8.48;94.92
53758;BME280;39674;59.860;30.672;2022-12-20T13:07:53;101054.38;;;-8.51;96.28
53758;BME280;39674;59.860;30.672;2022-12-20T13:13:12;101055.09;;;-8.56;96.18
53758;BME280;39674;59.860;30.672;2022-12-20T13:15:45;101058.56;;;-8.53;97.38
53758;BME280;39674;59.860;30.672;2022-12-20T13:18:26;101061.75;;;-8.61;96.15
53758;BME280;39674;59.860;30.672;2022-12-20T13:23:48;101057.13;;;-8.73;96.06
53758;BME280;39674;59.860;30.672;2022-12-20T13:26:41;101066.28;;;-8.79;96.59
53758;BME280;39674;59.860;30.672;2022-12-20T13:29:22;101055.19;;;-8.80;96.94
53758;BME280;39674;59.860;30.672;2022-12-20T13:31:52;101054.97;;;-8.86;96.71
53758;BME280;39674;59.860;30.672;2022-12-20T13:34:36;101042.13;;;-8.88;96.99
53758;BME280;39674;59.860;30.672;2022-12-20T13:39:50;101053.69;;;-8.99;97.30
53758;BME280;39674;59.860;30.672;2022-12-20T13:42:26;101043.34;;;-9.02;97.28
53758;BME280;39674;59.860;30.672;2022-12-20T13:45:00;101044.97;;;-9.04;97.37
53758;BME280;39674;59.860;30.672;2022-12-20T13:47:36;101032.78;;;-9.11;97.26
53758;BME280;39674;59.860;30.672;2022-12-20T13:53:06;101018.81;;;-9.21;97.17
53758;BME280;39674;59.860;30.672;2022-12-20T13:55:45;101013.66;;;-9.23;97.85
53758;BME280;39674;59.860;30.672;2022-12-20T13:58:16;101015.19;;;-9.28;98.25
53758;BME280;39674;59.860;30.672;2022-12-20T14:00:47;101022.44;;;-9.40;97.18
53758;BME280;39674;59.860;30.672;2022-12-20T14:03:18;101021.50;;;-9.42;97.93
53758;BME280;39674;59.860;30.672;2022-12-20T14:05:47;101021.50;;;-9.42;98.05
53758;BME280;39674;59.860;30.672;2022-12-20T14:08:16;101027.13;;;-9.53;98.08
53758;BME280;39674;59.860;30.672;2022-12-20T14:10:47;101025.44;;;-9.52;98.28
53758;BME280;39674;59.860;30.672;2022-12-20T14:13:19;101029.56;;;-9.56;98.54
53758;BME280;39674;59.860;30.672;2022-12-20T14:15:48;101033.69;;;-9.59;98.15
53758;BME280;39674;59.860;30.672;2022-12-20T14:18:19;101036.97;;;-9.63;97.87
53758;BME280;39674;59.860;30.672;2022-12-20T14:20:51;101043.16;;;-9.57;98.39
53758;BME280;39674;59.860;30.672;2022-12-20T14:23:22;101042.72;;;-9.69;97.73
53758;BME280;39674;59.860;30.672;2022-12-20T14:25:55;101051.19;;;-9.70;98.37
53758;BME280;39674;59.860;30.672;2022-12-20T14:28:26;101061.44;;;-9.70;98.82
53758;BME280;39674;59.860;30.672;2022-12-20T14:30:57;101070.25;;;-9.62;98.14
53758;BME280;39674;59.860;30.672;2022-12-20T14:33:29;101072.31;;;-9.76;98.08
53758;BME280;39674;59.860;30.672;2022-12-20T14:36:06;101065.34;;;-9.80;97.75
53758;BME280;39674;59.860;30.672;2022-12-20T14:38:34;101067.84;;;-9.81;98.35